createdAt,value
2019-06-20T00:00:12.453Z,18.10
2019-06-20T00:02:41.688Z,18.20
2019-06-20T00:05:09.051Z,18.40
2019-06-20T00:07:36.047Z,18.60
2019-06-20T00:10:04.932Z,18.60
2019-06-20T00:12:31.957Z,18.60
2019-06-20T00:14:59.027Z,18.70
2019-06-20T00:17:26.353Z,18.50
2019-06-20T00:19:53.356Z,18.30
2019-06-20T00:22:20.356Z,18.50
2019-06-20T00:24:47.415Z,18.30
2019-06-20T00:27:14.382Z,18.30
2019-06-20T00:29:41.369Z,18.20
2019-06-20T00:32:08.453Z,18.00
2019-06-20T00:34:36.100Z,17.70
2019-06-20T00:37:03.103Z,17.90
2019-06-20T00:39:30.276Z,18.00
2019-06-20T00:41:57.252Z,18.00
2019-06-20T00:44:24.331Z,18.00
2019-06-20T00:46:51.640Z,17.90
2019-06-20T00:49:18.733Z,18.00
2019-06-20T00:51:46.045Z,18.10
2019-06-20T00:54:13.135Z,18.20
2019-06-20T00:56:40.263Z,18.20
2019-06-20T00:59:07.417Z,18.30
2019-06-20T01:01:34.488Z,18.20
2019-06-20T01:04:01.556Z,18.40
2019-06-20T01:06:28.644Z,18.30
2019-06-20T01:08:55.721Z,18.10
2019-06-20T01:11:22.975Z,18.40
2019-06-20T01:13:52.807Z,18.50
2019-06-20T01:16:18.968Z,18.70
2019-06-20T01:18:46.090Z,18.40
2019-06-20T01:21:15.052Z,18.50
2019-06-20T01:23:42.389Z,18.60
2019-06-20T01:26:09.478Z,18.70
2019-06-20T01:28:36.446Z,18.50
2019-06-20T01:31:03.769Z,18.30
2019-06-20T01:33:31.089Z,18.10
2019-06-20T01:35:58.062Z,18.20
2019-06-20T01:38:25.078Z,18.40
2019-06-20T01:40:52.166Z,18.50
2019-06-20T01:43:19.236Z,18.30
2019-06-20T01:45:46.312Z,18.30
2019-06-20T01:48:13.275Z,18.20
2019-06-20T01:50:40.607Z,18.40
2019-06-20T01:53:07.684Z,18.30
2019-06-20T01:55:34.681Z,18.50
2019-06-20T01:58:02.082Z,18.30
2019-06-20T02:00:36.728Z,18.20
2019-06-20T02:03:03.875Z,18.10
2019-06-20T02:05:30.887Z,18.10
2019-06-20T02:07:57.848Z,18.30
2019-06-20T02:10:24.931Z,18.30
2019-06-20T02:12:52.003Z,18.20
2019-06-20T02:15:19.128Z,18.40
2019-06-20T02:17:46.455Z,18.40
2019-06-20T02:20:27.786Z,18.30
2019-06-20T02:22:54.865Z,18.20
2019-06-20T02:25:22.248Z,18.30
2019-06-20T02:27:49.202Z,18.30
2019-06-20T02:30:16.420Z,18.30
2019-06-20T02:32:43.474Z,18.20
2019-06-20T02:35:10.744Z,18.20
2019-06-20T02:37:37.726Z,18.10
2019-06-20T02:40:05.050Z,18.20
2019-06-20T02:42:32.233Z,18.20
2019-06-20T02:44:59.361Z,18.30
2019-06-20T02:47:26.431Z,18.40
2019-06-20T02:49:53.721Z,18.20
2019-06-20T02:52:21.808Z,18.10
2019-06-20T02:54:48.816Z,18.20
2019-06-20T02:57:15.780Z,18.10
2019-06-20T02:59:42.861Z,18.20
2019-06-20T03:02:10.331Z,18.20
2019-06-20T03:04:37.309Z,18.00
2019-06-20T03:07:04.367Z,18.10
2019-06-20T03:09:31.687Z,18.20
2019-06-20T03:11:58.661Z,18.20
2019-06-20T03:14:25.854Z,18.20
2019-06-20T03:16:52.863Z,18.30
2019-06-20T03:19:19.924Z,18.20
2019-06-20T03:21:47.031Z,18.20
2019-06-20T03:24:14.041Z,18.10
2019-06-20T03:26:41.223Z,18.20
2019-06-20T03:29:08.306Z,18.10
2019-06-20T03:31:35.615Z,18.00
2019-06-20T03:34:02.980Z,18.10
2019-06-20T03:36:30.030Z,18.30
2019-06-20T03:38:57.127Z,18.20
2019-06-20T03:41:24.091Z,18.20
2019-06-20T03:43:51.369Z,18.30
2019-06-20T03:46:18.363Z,18.20
2019-06-20T03:48:45.423Z,18.00
2019-06-20T03:51:12.508Z,17.90
2019-06-20T03:53:39.676Z,17.90
2019-06-20T03:56:06.681Z,17.90
2019-06-20T03:58:34.187Z,17.90
2019-06-20T04:01:01.494Z,17.90
2019-06-20T04:03:28.676Z,17.80
2019-06-20T04:05:55.753Z,17.90
2019-06-20T04:08:23.045Z,17.80
2019-06-20T04:10:50.007Z,18.00
2019-06-20T04:13:16.966Z,17.90
2019-06-20T04:15:43.971Z,18.00
2019-06-20T04:18:20.014Z,18.00
2019-06-20T04:20:47.233Z,17.90
2019-06-20T04:23:14.243Z,17.90
2019-06-20T04:25:41.244Z,18.00
2019-06-20T04:28:08.254Z,18.00
2019-06-20T04:30:35.195Z,18.20
2019-06-20T04:33:02.521Z,18.20
2019-06-20T04:35:29.875Z,18.20
2019-06-20T04:37:56.872Z,18.30
2019-06-20T04:40:24.092Z,18.20
2019-06-20T04:42:51.058Z,18.10
2019-06-20T04:45:35.018Z,18.00
2019-06-20T04:47:55.175Z,18.10
2019-06-20T04:50:22.131Z,18.20
2019-06-20T04:52:49.111Z,18.30
2019-06-20T04:55:16.263Z,18.50
2019-06-20T04:57:43.693Z,18.80
2019-06-20T05:00:10.871Z,18.40
2019-06-20T05:02:38.122Z,18.40
2019-06-20T05:05:06.525Z,18.30
2019-06-20T05:07:33.663Z,18.50
2019-06-20T05:10:01.215Z,18.70
2019-06-20T05:12:28.199Z,18.90
2019-06-20T05:14:55.356Z,18.70
2019-06-20T05:17:22.380Z,18.60
2019-06-20T05:19:49.371Z,18.70
2019-06-20T05:22:16.521Z,18.70
2019-06-20T05:24:43.527Z,18.90
2019-06-20T05:27:10.606Z,18.90
2019-06-20T05:29:37.866Z,19.10
2019-06-20T05:32:04.851Z,18.80
2019-06-20T05:34:31.822Z,18.80
2019-06-20T05:36:59.085Z,19.20
2019-06-20T05:39:26.127Z,19.10
2019-06-20T05:41:53.101Z,19.30
2019-06-20T05:44:20.399Z,19.10
2019-06-20T05:46:47.383Z,18.90
2019-06-20T05:49:14.395Z,18.80
2019-06-20T05:51:41.783Z,18.80
2019-06-20T05:54:08.818Z,18.80
2019-06-20T05:56:35.795Z,18.80
2019-06-20T05:59:03.016Z,18.70
2019-06-20T06:01:30.070Z,18.70
2019-06-20T06:03:57.383Z,18.70
2019-06-20T06:06:24.736Z,18.70
2019-06-20T06:08:51.908Z,18.60
2019-06-20T06:11:19.302Z,18.70
2019-06-20T06:13:46.656Z,18.60
2019-06-20T06:16:25.687Z,18.60
2019-06-20T06:18:42.862Z,18.50
2019-06-20T06:21:09.963Z,18.60
2019-06-20T06:23:37.374Z,18.70
2019-06-20T06:26:04.637Z,18.80
2019-06-20T06:28:31.966Z,18.60
2019-06-20T06:30:59.313Z,18.50
2019-06-20T06:33:26.558Z,18.50
2019-06-20T06:35:53.748Z,18.40
2019-06-20T06:38:22.485Z,18.50
2019-06-20T06:40:49.677Z,18.40
2019-06-20T06:43:16.677Z,18.30
2019-06-20T06:45:43.660Z,18.40
2019-06-20T06:48:10.927Z,18.30
2019-06-20T06:50:38.293Z,18.30
2019-06-20T06:53:05.280Z,18.30
2019-06-20T06:55:32.281Z,18.30
2019-06-20T06:57:59.250Z,18.20
2019-06-20T07:00:26.349Z,18.30
2019-06-20T07:02:53.324Z,18.30
2019-06-20T07:05:20.702Z,18.30
2019-06-20T07:07:48.202Z,18.40
2019-06-20T07:10:16.715Z,18.40
2019-06-20T07:12:43.670Z,18.30
2019-06-20T07:15:14.691Z,18.30
2019-06-20T07:17:41.804Z,18.30
2019-06-20T07:20:09.235Z,18.40
2019-06-20T07:22:36.199Z,18.30
2019-06-20T07:25:04.339Z,18.30
2019-06-20T07:27:31.639Z,18.30
2019-06-20T07:29:58.680Z,18.40
2019-06-20T07:32:25.703Z,18.50
2019-06-20T07:34:52.759Z,18.50
2019-06-20T07:37:19.787Z,18.40
2019-06-20T07:39:46.891Z,18.40
2019-06-20T07:42:15.110Z,18.40
2019-06-20T07:44:42.142Z,18.20
2019-06-20T07:47:17.510Z,18.20
2019-06-20T07:49:38.087Z,18.20
2019-06-20T07:52:05.315Z,18.30
2019-06-20T07:54:32.599Z,18.40
2019-06-20T07:56:59.592Z,18.50
2019-06-20T07:59:27.019Z,18.50
2019-06-20T08:01:54.064Z,18.50
2019-06-20T08:04:22.242Z,18.50
2019-06-20T08:06:49.423Z,18.60
2019-06-20T08:09:16.682Z,18.60
2019-06-20T08:11:44.203Z,18.70
2019-06-20T08:14:11.598Z,18.80
2019-06-20T08:16:38.932Z,19.00
2019-06-20T08:19:06.231Z,19.10
2019-06-20T08:21:33.174Z,19.00
2019-06-20T08:24:00.558Z,18.90
2019-06-20T08:26:27.943Z,18.80
2019-06-20T08:29:10.394Z,18.80
2019-06-20T08:31:23.803Z,18.90
2019-06-20T08:33:50.867Z,18.90
2019-06-20T08:36:17.959Z,19.00
2019-06-20T08:38:44.919Z,19.00
2019-06-20T08:41:11.943Z,19.10
2019-06-20T08:43:39.059Z,19.20
2019-06-20T08:46:10.245Z,19.20
2019-06-20T08:48:35.222Z,19.30
2019-06-20T08:51:02.331Z,19.20
2019-06-20T08:53:29.699Z,19.10
2019-06-20T08:55:58.135Z,19.20
2019-06-20T08:58:26.200Z,19.20
2019-06-20T09:00:55.466Z,19.20
2019-06-20T09:03:22.505Z,19.30
2019-06-20T09:05:49.462Z,19.30
2019-06-20T09:08:16.703Z,19.30
2019-06-20T09:10:43.767Z,19.50
2019-06-20T09:13:11.578Z,19.70
2019-06-20T09:15:38.838Z,19.80
2019-06-20T09:18:06.335Z,19.90
2019-06-20T09:20:33.954Z,19.80
2019-06-20T09:23:01.230Z,19.70
2019-06-20T09:25:28.311Z,19.70
2019-06-20T09:27:55.991Z,19.80
2019-06-20T09:30:41.232Z,19.80
2019-06-20T09:33:08.677Z,19.70
2019-06-20T09:35:35.912Z,19.60
2019-06-20T09:38:03.599Z,19.60
2019-06-20T09:40:32.357Z,19.40
2019-06-20T09:42:59.398Z,19.30
2019-06-20T09:45:27.558Z,19.40
2019-06-20T09:47:55.950Z,19.50
2019-06-20T09:50:23.358Z,19.60
2019-06-20T09:52:51.585Z,19.70
2019-06-20T09:55:20.027Z,19.70
2019-06-20T09:57:47.246Z,19.80
2019-06-20T10:00:16.695Z,19.80
2019-06-20T10:02:43.787Z,20.00
2019-06-20T10:05:11.783Z,20.00
2019-06-20T10:07:38.868Z,20.00
2019-06-20T10:10:07.910Z,20.10
2019-06-20T10:12:35.124Z,20.10
2019-06-20T10:15:02.535Z,20.00
2019-06-20T10:17:30.571Z,20.10
2019-06-20T10:19:57.765Z,20.00
2019-06-20T10:22:24.716Z,20.20
2019-06-20T10:24:53.506Z,20.30
2019-06-20T10:27:21.252Z,20.50
2019-06-20T10:29:48.980Z,20.30
2019-06-20T10:32:16.441Z,20.40
2019-06-20T10:34:45.125Z,20.60
2019-06-20T10:37:12.394Z,20.70
2019-06-20T10:39:39.547Z,20.90
2019-06-20T10:42:06.605Z,20.90
2019-06-20T10:44:33.958Z,20.90
2019-06-20T10:47:01.008Z,20.60
2019-06-20T10:49:27.979Z,20.70
2019-06-20T10:51:55.164Z,20.60
2019-06-20T10:54:22.328Z,20.60
2019-06-20T10:56:49.413Z,20.70
2019-06-20T10:59:16.505Z,20.80
2019-06-20T11:01:44.364Z,20.80
2019-06-20T11:04:11.457Z,20.90
2019-06-20T11:06:39.958Z,21.20
2019-06-20T11:09:08.286Z,21.50
2019-06-20T11:11:35.665Z,21.70
2019-06-20T11:14:02.829Z,21.90
2019-06-20T11:16:29.792Z,21.80
2019-06-20T11:18:57.305Z,21.40
2019-06-20T11:21:24.279Z,21.30
2019-06-20T11:23:52.653Z,21.10
2019-06-20T11:26:19.819Z,21.10
2019-06-20T11:28:48.645Z,21.40
2019-06-20T11:31:15.836Z,21.40
2019-06-20T11:33:44.091Z,21.40
2019-06-20T11:36:12.463Z,21.60
2019-06-20T11:38:40.642Z,21.50
2019-06-20T11:41:08.462Z,21.40
2019-06-20T11:43:36.306Z,21.20
2019-06-20T11:46:03.455Z,21.30
2019-06-20T11:48:30.535Z,21.40
2019-06-20T11:50:58.126Z,21.40
2019-06-20T11:53:25.209Z,21.50
2019-06-20T11:55:52.781Z,21.40
2019-06-20T11:58:19.787Z,21.50
2019-06-20T12:01:02.539Z,21.60
2019-06-20T12:03:16.249Z,21.50
2019-06-20T12:05:44.857Z,21.60
2019-06-20T12:08:12.097Z,21.40
2019-06-20T12:10:39.306Z,21.30
2019-06-20T12:13:06.722Z,21.20
2019-06-20T12:15:34.180Z,21.10
2019-06-20T12:18:01.568Z,20.90
2019-06-20T12:20:28.761Z,20.80
2019-06-20T12:22:55.730Z,20.80
2019-06-20T12:25:22.990Z,21.10
2019-06-20T12:27:50.653Z,21.40
2019-06-20T12:30:18.875Z,21.50
2019-06-20T12:32:46.865Z,21.90
2019-06-20T12:35:14.311Z,22.10
2019-06-20T12:37:42.580Z,22.10
2019-06-20T12:40:11.779Z,22.50
2019-06-20T12:42:39.863Z,22.70
2019-06-20T12:45:08.586Z,22.30
2019-06-20T12:47:35.644Z,22.60
2019-06-20T12:50:03.594Z,22.50
2019-06-20T12:52:30.661Z,22.50
2019-06-20T12:54:57.672Z,22.40
2019-06-20T12:57:24.744Z,22.10
2019-06-20T12:59:51.967Z,21.90
2019-06-20T13:02:19.311Z,21.80
2019-06-20T13:04:46.631Z,21.60
2019-06-20T13:07:13.688Z,21.60
2019-06-20T13:09:42.084Z,21.40
2019-06-20T13:12:09.470Z,21.40
2019-06-20T13:14:39.173Z,21.50
2019-06-20T13:17:05.896Z,21.60
2019-06-20T13:19:32.958Z,21.60
2019-06-20T13:22:00.161Z,21.80
2019-06-20T13:24:27.258Z,21.90
2019-06-20T13:26:54.543Z,22.20
2019-06-20T13:29:22.508Z,22.20
2019-06-20T13:32:01.958Z,22.20
2019-06-20T13:34:18.709Z,22.30
2019-06-20T13:36:46.986Z,22.60
2019-06-20T13:39:14.100Z,22.70
2019-06-20T13:41:41.157Z,23.20
2019-06-20T13:44:08.459Z,23.70
2019-06-20T13:46:35.540Z,23.70
2019-06-20T13:49:02.843Z,23.80
2019-06-20T13:51:30.148Z,23.50
2019-06-20T13:53:57.175Z,23.40
2019-06-20T13:56:24.398Z,23.50
2019-06-20T13:58:51.712Z,23.60
2019-06-20T14:01:18.732Z,24.00
2019-06-20T14:03:47.003Z,24.20
2019-06-20T14:06:14.731Z,24.40
2019-06-20T14:08:42.896Z,24.70
2019-06-20T14:11:11.530Z,24.70
2019-06-20T14:13:41.119Z,24.20
2019-06-20T14:16:08.291Z,24.10
2019-06-20T14:18:35.283Z,24.30
2019-06-20T14:21:02.427Z,24.30
2019-06-20T14:23:29.592Z,23.90
2019-06-20T14:25:56.663Z,23.50
2019-06-20T14:28:23.723Z,23.10
2019-06-20T14:30:50.783Z,23.40
2019-06-20T14:33:18.169Z,23.70
2019-06-20T14:35:46.110Z,24.30
2019-06-20T14:38:14.027Z,24.90
2019-06-20T14:40:43.596Z,26.00
2019-06-20T14:43:10.581Z,26.20
2019-06-20T14:45:38.117Z,26.00
2019-06-20T14:48:05.231Z,25.60
2019-06-20T14:50:32.743Z,24.80
2019-06-20T14:52:59.849Z,24.90
2019-06-20T14:55:26.822Z,25.60
2019-06-20T14:57:54.701Z,26.00
2019-06-20T15:00:25.536Z,26.50
2019-06-20T15:02:56.679Z,26.90
2019-06-20T15:05:22.340Z,27.20
2019-06-20T15:07:51.509Z,26.70
2019-06-20T15:10:19.268Z,26.00
2019-06-20T15:12:48.356Z,24.90
2019-06-20T15:15:16.784Z,23.90
2019-06-20T15:17:46.478Z,23.60
2019-06-20T15:20:13.366Z,23.20
2019-06-20T15:22:41.514Z,23.00
2019-06-20T15:25:08.966Z,22.80
2019-06-20T15:27:35.963Z,22.50
2019-06-20T15:30:03.785Z,22.50
2019-06-20T15:32:30.886Z,22.50
2019-06-20T15:35:00.971Z,22.00
2019-06-20T15:37:27.149Z,21.90
2019-06-20T15:39:55.446Z,21.70
2019-06-20T15:42:22.632Z,21.70
2019-06-20T15:44:50.168Z,21.40
2019-06-20T15:47:19.047Z,21.30
2019-06-20T15:49:46.520Z,21.20
2019-06-20T15:52:14.722Z,21.30
2019-06-20T15:54:41.734Z,21.40
2019-06-20T15:57:08.827Z,21.40
2019-06-20T15:59:35.923Z,21.50
2019-06-20T16:02:03.176Z,21.50
2019-06-20T16:04:30.122Z,21.40
2019-06-20T16:06:57.446Z,21.30
2019-06-20T16:09:24.422Z,21.40
2019-06-20T16:11:51.425Z,21.80
2019-06-20T16:14:18.502Z,23.60
2019-06-20T16:16:46.132Z,24.90
2019-06-20T16:19:13.171Z,26.20
2019-06-20T16:21:40.467Z,26.60
2019-06-20T16:24:07.543Z,26.90
2019-06-20T16:26:34.552Z,27.10
2019-06-20T16:29:01.623Z,26.90
2019-06-20T16:31:29.060Z,26.80
2019-06-20T16:33:56.439Z,25.80
2019-06-20T16:36:23.497Z,26.70
2019-06-20T16:38:50.581Z,27.40
2019-06-20T16:41:17.814Z,26.30
2019-06-20T16:43:44.987Z,26.40
2019-06-20T16:46:12.278Z,25.50
2019-06-20T16:48:39.364Z,25.30
2019-06-20T16:51:06.488Z,26.70
2019-06-20T16:53:33.724Z,27.40
2019-06-20T16:56:01.074Z,27.90
2019-06-20T16:58:28.137Z,28.30
2019-06-20T17:00:55.613Z,28.70
2019-06-20T17:03:22.961Z,28.70
2019-06-20T17:05:50.039Z,28.30
2019-06-20T17:08:19.030Z,27.70
2019-06-20T17:10:46.434Z,28.10
2019-06-20T17:13:13.432Z,28.10
2019-06-20T17:15:40.624Z,28.10
2019-06-20T17:18:07.679Z,27.80
2019-06-20T17:20:34.741Z,28.20
2019-06-20T17:23:01.968Z,28.50
2019-06-20T17:25:29.132Z,28.20
2019-06-20T17:27:56.267Z,27.60
2019-06-20T17:30:25.151Z,27.40
2019-06-20T17:32:52.267Z,28.20
2019-06-20T17:35:19.481Z,28.00
2019-06-20T17:37:46.610Z,27.90
2019-06-20T17:40:15.022Z,27.10
2019-06-20T17:42:42.207Z,27.10
2019-06-20T17:45:11.484Z,26.90
2019-06-20T17:47:38.914Z,27.60
2019-06-20T17:50:06.911Z,28.30
2019-06-20T17:52:34.091Z,28.10
2019-06-20T17:55:01.427Z,28.50
2019-06-20T17:57:28.500Z,29.00
2019-06-20T17:59:55.577Z,28.80
2019-06-20T18:02:22.807Z,28.70
2019-06-20T18:04:49.943Z,28.70
2019-06-20T18:07:17.224Z,28.30
2019-06-20T18:09:44.290Z,28.50
2019-06-20T18:12:12.365Z,28.40
2019-06-20T18:14:39.344Z,28.40
2019-06-20T18:17:06.424Z,27.60
2019-06-20T18:19:33.918Z,26.30
2019-06-20T18:22:00.999Z,25.50
2019-06-20T18:24:27.947Z,24.30
2019-06-20T18:26:55.575Z,23.70
2019-06-20T18:29:22.752Z,23.20
2019-06-20T18:31:50.142Z,22.80
2019-06-20T18:34:29.481Z,22.60
2019-06-20T18:36:46.176Z,22.30
2019-06-20T18:39:13.267Z,22.00
2019-06-20T18:41:40.533Z,22.00
2019-06-20T18:44:07.954Z,21.90
2019-06-20T18:46:34.927Z,21.80
2019-06-20T18:49:01.999Z,21.70
2019-06-20T18:51:29.162Z,21.70
2019-06-20T18:53:56.500Z,21.50
2019-06-20T18:56:25.155Z,21.40
2019-06-20T18:58:54.724Z,21.50
2019-06-20T19:01:22.161Z,21.40
2019-06-20T19:03:49.210Z,21.30
2019-06-20T19:06:16.295Z,21.10
2019-06-20T19:08:43.612Z,21.20
2019-06-20T19:11:10.966Z,21.20
2019-06-20T19:13:38.090Z,21.10
2019-06-20T19:16:05.135Z,21.20
2019-06-20T19:18:32.133Z,21.00
2019-06-20T19:20:59.095Z,21.10
2019-06-20T19:23:26.094Z,21.10
2019-06-20T19:25:53.268Z,21.00
2019-06-20T19:28:20.571Z,21.10
2019-06-20T19:30:52.006Z,21.00
2019-06-20T19:33:19.400Z,21.00
2019-06-20T19:35:46.411Z,21.00
2019-06-20T19:38:14.002Z,20.90
2019-06-20T19:40:44.432Z,20.90
2019-06-20T19:43:12.038Z,20.90
2019-06-20T19:45:39.728Z,20.90
2019-06-20T19:48:07.587Z,21.00
2019-06-20T19:50:34.902Z,20.90
2019-06-20T19:53:02.069Z,20.90
2019-06-20T19:55:29.510Z,20.80
2019-06-20T19:57:56.692Z,20.90
2019-06-20T20:00:24.174Z,20.70
2019-06-20T20:02:51.467Z,20.60
2019-06-20T20:05:20.102Z,20.60
2019-06-20T20:07:47.494Z,20.50
2019-06-20T20:10:20.968Z,20.40
2019-06-20T20:12:48.939Z,20.20
2019-06-20T20:15:19.346Z,20.20
2019-06-20T20:17:46.615Z,20.00
2019-06-20T20:20:14.631Z,20.10
2019-06-20T20:22:41.813Z,20.10
2019-06-20T20:25:11.225Z,19.90
2019-06-20T20:27:38.248Z,19.90
2019-06-20T20:30:05.788Z,19.70
2019-06-20T20:32:33.414Z,19.60
2019-06-20T20:35:01.421Z,19.50
2019-06-20T20:37:28.875Z,19.30
2019-06-20T20:39:55.922Z,19.20
2019-06-20T20:42:23.136Z,19.00
2019-06-20T20:44:50.237Z,19.00
2019-06-20T20:47:21.956Z,18.90
2019-06-20T20:49:49.098Z,18.80
2019-06-20T20:52:18.773Z,18.70
2019-06-20T20:54:58.146Z,18.40
2019-06-20T20:57:25.854Z,18.30
2019-06-20T20:59:52.951Z,18.30
2019-06-20T21:02:20.267Z,18.20
2019-06-20T21:04:47.703Z,18.10
2019-06-20T21:07:14.687Z,18.00
2019-06-20T21:09:41.675Z,18.00
2019-06-20T21:12:08.699Z,17.80
2019-06-20T21:14:35.830Z,17.90
2019-06-20T21:17:02.852Z,17.90
2019-06-20T21:19:30.219Z,17.80
2019-06-20T21:21:57.523Z,17.80
2019-06-20T21:24:24.503Z,17.60
2019-06-20T21:26:51.492Z,17.60
2019-06-20T21:29:18.551Z,17.50
2019-06-20T21:31:45.710Z,17.50
2019-06-20T21:34:13.020Z,17.50
2019-06-20T21:36:40.007Z,17.50
2019-06-20T21:39:07.501Z,17.60
2019-06-20T21:41:34.619Z,17.70
2019-06-20T21:44:01.593Z,17.50
2019-06-20T21:46:28.571Z,17.50
2019-06-20T21:48:56.006Z,17.40
2019-06-20T21:51:23.667Z,17.30
2019-06-20T21:53:50.643Z,17.30
2019-06-20T21:56:17.590Z,17.30
2019-06-20T21:58:44.719Z,17.30
2019-06-20T22:01:12.493Z,17.30
2019-06-20T22:03:40.162Z,17.30
2019-06-20T22:06:20.217Z,17.40
2019-06-20T22:08:36.219Z,17.40
2019-06-20T22:11:03.431Z,17.40
2019-06-20T22:13:30.507Z,17.40
2019-06-20T22:15:58.091Z,17.30
2019-06-20T22:18:25.057Z,17.30
2019-06-20T22:20:52.561Z,17.20
2019-06-20T22:23:19.608Z,17.20
2019-06-20T22:25:46.707Z,17.30
2019-06-20T22:28:13.914Z,17.20
2019-06-20T22:30:45.262Z,17.20
2019-06-20T22:33:13.153Z,17.00
2019-06-20T22:35:40.968Z,17.00
2019-06-20T22:38:07.938Z,17.00
2019-06-20T22:40:35.386Z,17.20
2019-06-20T22:43:02.598Z,17.10
2019-06-20T22:45:30.205Z,17.10
2019-06-20T22:47:57.482Z,17.10
2019-06-20T22:50:24.551Z,17.10
2019-06-20T22:52:51.660Z,17.00
2019-06-20T22:55:18.803Z,16.90
2019-06-20T22:57:46.058Z,16.80
2019-06-20T23:00:13.547Z,16.70
2019-06-20T23:02:40.610Z,16.80
2019-06-20T23:05:08.013Z,16.70
2019-06-20T23:07:35.511Z,16.60
2019-06-20T23:10:10.445Z,16.70
2019-06-20T23:12:33.367Z,16.60
2019-06-20T23:15:00.363Z,16.70
2019-06-20T23:17:27.369Z,16.90
2019-06-20T23:19:54.452Z,16.80
2019-06-20T23:22:21.502Z,16.80
2019-06-20T23:24:48.865Z,16.50
2019-06-20T23:27:16.249Z,16.50
2019-06-20T23:29:43.588Z,16.40
2019-06-20T23:32:10.686Z,16.40
2019-06-20T23:34:38.030Z,16.40
2019-06-20T23:37:12.910Z,16.40
2019-06-20T23:39:34.052Z,16.40
2019-06-20T23:42:01.069Z,16.40
2019-06-20T23:44:28.091Z,16.30
2019-06-20T23:46:55.244Z,16.30
2019-06-20T23:49:22.222Z,16.30
2019-06-20T23:51:55.225Z,16.40
2019-06-20T23:54:23.860Z,16.30
2019-06-20T23:56:51.011Z,16.30
2019-06-20T23:59:18.009Z,16.20
